Time;durP1;ratioP1;P1;durP2;ratioP2;P2;SDS_P1;SDS_P2;PMS_P1;PMS_P2;Temp;Humidity;BMP_temperature;BMP_pressure;BME280_temperature;BME280_humidity;BME280_pressure;Samples;Min_cycle;Max_cycle;Signal;HPM_P1;HPM_P2
2022/10/20 00:00:50;;;;;;;0.10;0.10;;;;;;;8.29;100.00;101691.09;5041335;28;20425;-70
2022/10/20 00:03:15;;;;;;;0.10;0.10;;;;;;;8.40;100.00;101702.94;5057188;28;20476;-71
2022/10/20 00:05:41;;;;;;;0.10;0.10;;;;;;;8.43;100.00;101717.09;5054271;28;20151;-70
2022/10/20 00:08:06;;;;;;;0.10;0.10;;;;;;;8.37;100.00;101700.44;5057548;28;20032;-71
2022/10/20 00:10:31;;;;;;;0.10;0.10;;;;;;;8.38;100.00;101704.00;5057624;28;20025;-73
2022/10/20 00:12:57;;;;;;;0.10;0.10;;;;;;;8.38;100.00;101699.47;5048855;28;20032;-72
2022/10/20 00:15:22;;;;;;;0.00;0.00;;;;;;;8.31;100.00;101686.53;5054468;28;20036;-72
2022/10/20 00:17:47;;;;;;;0.10;0.10;;;;;;;8.33;100.00;101698.03;5056327;28;20135;-71
2022/10/20 00:20:13;;;;;;;0.10;0.10;;;;;;;8.24;100.00;101691.38;5049767;28;20066;-71
2022/10/20 00:22:38;;;;;;;0.10;0.10;;;;;;;8.29;100.00;101693.78;5058918;28;20029;-72
2022/10/20 00:25:03;;;;;;;0.10;0.10;;;;;;;8.22;100.00;101685.22;5051678;28;20202;-71
2022/10/20 00:27:29;;;;;;;0.10;0.10;;;;;;;8.21;100.00;101680.81;5057281;28;20454;-72
2022/10/20 00:29:54;;;;;;;0.10;0.10;;;;;;;8.33;100.00;101690.00;5052012;28;20036;-72
2022/10/20 00:32:19;;;;;;;0.10;0.10;;;;;;;8.06;100.00;101659.31;5054965;28;20028;-74
2022/10/20 00:34:45;;;;;;;0.10;0.10;;;;;;;8.21;100.00;101678.16;5056513;28;20048;-72
2022/10/20 00:37:10;;;;;;;0.10;0.10;;;;;;;8.13;100.00;101665.19;5039863;28;20036;-71
2022/10/20 00:39:35;;;;;;;0.00;0.00;;;;;;;8.11;100.00;101657.25;5057184;28;20060;-72
2022/10/20 00:42:02;;;;;;;0.10;0.10;;;;;;;8.06;100.00;101623.69;5040463;28;20082;-73
2022/10/20 00:44:48;;;;;;;0.10;0.10;;;;;;;8.06;100.00;101645.06;5044206;28;20024;-72
2022/10/20 00:47:18;;;;;;;0.00;0.00;;;;;;;8.00;100.00;101637.38;5043797;28;20024;-72
2022/10/20 00:49:43;;;;;;;0.10;0.10;;;;;;;8.13;100.00;101657.19;5043482;28;20032;-71
2022/10/20 00:52:09;;;;;;;0.10;0.10;;;;;;;7.92;100.00;101660.06;5049220;28;20040;-72
2022/10/20 00:54:35;;;;;;;0.10;0.10;;;;;;;7.93;100.00;101643.09;5055122;28;20039;-72
2022/10/20 00:57:00;;;;;;;0.10;0.10;;;;;;;8.07;100.00;101652.16;5040420;28;20024;-71
2022/10/20 00:59:30;;;;;;;0.10;0.10;;;;;;;7.98;100.00;101650.84;5061988;28;20070;-70
2022/10/20 01:01:55;;;;;;;0.10;0.10;;;;;;;8.03;100.00;101656.81;5038269;28;20083;-70
2022/10/20 01:04:21;;;;;;;0.10;0.10;;;;;;;8.11;100.00;101637.66;5040921;28;20035;-72
2022/10/20 01:06:46;;;;;;;0.10;0.10;;;;;;;8.01;100.00;101639.97;5062225;28;20055;-71
2022/10/20 01:09:12;;;;;;;0.10;0.10;;;;;;;7.92;100.00;101627.09;5054579;28;20150;-71
2022/10/20 01:11:43;;;;;;;0.10;0.10;;;;;;;7.98;100.00;101629.44;5059382;28;20380;-71
2022/10/20 01:14:19;;;;;;;0.10;0.10;;;;;;;7.96;100.00;101617.97;5061808;28;20471;-71
2022/10/20 01:17:03;;;;;;;0.10;0.10;;;;;;;7.95;100.00;101614.41;5039124;28;20423;-71
2022/10/20 01:19:41;;;;;;;0.10;0.10;;;;;;;7.96;100.00;101609.94;5058238;28;20062;-71
2022/10/20 01:22:29;;;;;;;0.10;0.10;;;;;;;7.94;100.00;101617.19;5060583;28;20115;-70
2022/10/20 01:25:12;;;;;;;0.10;0.10;;;;;;;7.91;100.00;101617.34;5042238;28;20074;-70
2022/10/20 01:27:42;;;;;;;0.10;0.10;;;;;;;7.91;100.00;101615.56;5042847;28;20067;-70
2022/10/20 01:30:17;;;;;;;0.10;0.10;;;;;;;7.88;100.00;101598.78;5063176;28;20927;-70
2022/10/20 01:32:51;;;;;;;0.10;0.10;;;;;;;7.89;100.00;101597.84;5040590;28;20407;-70
2022/10/20 01:35:35;;;;;;;0.10;0.10;;;;;;;7.84;100.00;101586.53;5054186;28;20039;-69
2022/10/20 01:38:05;;;;;;;0.10;0.10;;;;;;;7.91;100.00;101588.81;5064246;28;20550;-70
2022/10/20 01:40:55;;;;;;;0.08;0.08;;;;;;;7.94;100.00;101587.78;5033757;28;20131;-70
2022/10/20 01:43:22;;;;;;;0.10;0.10;;;;;;;7.78;100.00;101585.06;5016062;28;20123;-70
2022/10/20 01:45:50;;;;;;;0.10;0.10;;;;;;;7.84;100.00;101570.50;5039355;28;20032;-70
2022/10/20 01:48:17;;;;;;;0.10;0.10;;;;;;;7.96;100.00;101559.13;5034600;28;20035;-70
2022/10/20 01:50:42;;;;;;;0.10;0.10;;;;;;;7.89;100.00;101545.25;5039382;28;20417;-71
2022/10/20 01:53:08;;;;;;;0.10;0.10;;;;;;;7.91;100.00;101554.06;5038408;28;20321;-71
2022/10/20 01:55:35;;;;;;;0.10;0.10;;;;;;;7.91;100.00;101547.81;5066167;28;20118;-70
2022/10/20 01:58:09;;;;;;;0.10;0.10;;;;;;;7.80;100.00;101546.63;5038233;28;20028;-71
2022/10/20 02:00:35;;;;;;;;;;;;;;;7.89;100.00;101549.72;5058973;28;20033;-70
2022/10/20 02:03:13;;;;;;;0.10;0.10;;;;;;;7.91;100.00;101545.16;5022215;28;19916;-70
2022/10/20 02:05:54;;;;;;;0.10;0.10;;;;;;;7.89;100.00;101534.56;5040134;28;20667;-70
2022/10/20 02:08:41;;;;;;;0.10;0.10;;;;;;;7.92;100.00;101537.06;5039028;28;20056;-74
2022/10/20 02:11:14;;;;;;;0.00;0.00;;;;;;;7.92;100.00;101526.38;5057257;28;20017;-70
2022/10/20 02:13:41;;;;;;;0.10;0.10;;;;;;;7.93;100.00;101516.53;5041216;28;20111;-75
2022/10/20 02:16:10;;;;;;;0.10;0.10;;;;;;;7.92;100.00;101515.69;5063685;28;20142;-71
2022/10/20 02:18:40;;;;;;;0.10;0.10;;;;;;;8.01;100.00;101521.44;5042672;28;20029;-70
2022/10/20 02:21:06;;;;;;;0.10;0.10;;;;;;;7.90;100.00;101503.31;5043317;28;20614;-71
2022/10/20 02:23:34;;;;;;;0.10;0.10;;;;;;;8.04;100.00;101522.16;5035392;28;20028;-71
2022/10/20 02:26:00;;;;;;;0.10;0.10;;;;;;;8.10;100.00;101527.13;5048820;28;20119;-72
2022/10/20 02:28:27;;;;;;;0.10;0.10;;;;;;;8.04;100.00;101538.19;5062499;28;20029;-73
2022/10/20 02:30:53;;;;;;;0.10;0.10;;;;;;;8.01;100.00;101532.13;5040877;28;20123;-74
2022/10/20 02:33:19;;;;;;;0.10;0.10;;;;;;;7.86;100.00;101494.63;5041938;28;20058;-72
2022/10/20 02:35:50;;;;;;;0.10;0.10;;;;;;;8.03;100.00;101520.41;5044740;28;20372;-73
2022/10/20 02:38:15;;;;;;;0.10;0.10;;;;;;;8.05;100.00;101525.66;5049984;28;20433;-72
2022/10/20 02:40:40;;;;;;;0.10;0.10;;;;;;;8.13;100.00;101511.84;5046041;28;20070;-72
2022/10/20 02:43:06;;;;;;;0.00;0.00;;;;;;;8.08;100.00;101510.31;5062943;28;20040;-71
2022/10/20 02:45:31;;;;;;;0.10;0.10;;;;;;;8.16;100.00;101501.88;5063713;28;20056;-70
2022/10/20 02:47:56;;;;;;;0.10;0.10;;;;;;;8.16;100.00;101507.22;5060487;28;20357;-71
2022/10/20 02:50:22;;;;;;;0.10;0.10;;;;;;;8.05;100.00;101513.16;5063027;28;20494;-70
2022/10/20 02:52:47;;;;;;;0.10;0.10;;;;;;;8.03;100.00;101503.50;5040524;28;20182;-71
2022/10/20 02:55:12;;;;;;;0.10;0.10;;;;;;;7.86;100.00;101475.91;5065312;28;20468;-71
2022/10/20 02:57:38;;;;;;;0.10;0.10;;;;;;;8.04;100.00;101499.88;5061189;28;20085;-71
2022/10/20 03:00:05;;;;;;;0.03;0.03;;;;;;;8.07;100.00;101497.03;5062308;28;20035;-73
2022/10/20 03:02:30;;;;;;;0.10;0.10;;;;;;;8.10;100.00;101491.50;5058848;28;20379;-70
2022/10/20 03:04:55;;;;;;;0.00;0.00;;;;;;;8.06;100.00;101488.16;5062679;28;20036;-70
2022/10/20 03:07:21;;;;;;;0.20;0.20;;;;;;;8.01;100.00;101473.28;5065119;28;20059;-70
2022/10/20 03:09:46;;;;;;;0.10;0.10;;;;;;;8.01;100.00;101460.81;5066788;28;20029;-71
2022/10/20 03:12:12;;;;;;;0.10;0.10;;;;;;;8.06;100.00;101449.84;5064256;28;20558;-71
2022/10/20 03:14:37;;;;;;;0.10;0.10;;;;;;;8.09;100.00;101434.47;5059804;28;20028;-70
2022/10/20 03:17:02;;;;;;;0.10;0.10;;;;;;;8.07;100.00;101433.72;5048796;28;20039;-69
2022/10/20 03:19:28;;;;;;;0.10;0.10;;;;;;;8.03;100.00;101440.19;5067464;28;20573;-70
2022/10/20 03:21:53;;;;;;;0.10;0.10;;;;;;;7.94;100.00;101422.88;5065482;28;20024;-72
2022/10/20 03:24:18;;;;;;;0.10;0.10;;;;;;;7.92;100.00;101424.75;5060163;28;20033;-73
2022/10/20 03:26:44;;;;;;;0.10;0.10;;;;;;;7.98;100.00;101418.19;5049289;28;20048;-70
2022/10/20 03:29:09;;;;;;;0.00;0.00;;;;;;;8.04;100.00;101406.28;5065362;28;20086;-70
2022/10/20 03:31:34;;;;;;;0.10;0.10;;;;;;;8.15;100.00;101413.66;5064835;28;20829;-70
2022/10/20 03:34:00;;;;;;;0.10;0.10;;;;;;;8.11;100.00;101415.66;5066997;28;20476;-71
2022/10/20 03:36:25;;;;;;;0.10;0.10;;;;;;;8.19;100.00;101415.22;5047192;28;20043;-72
2022/10/20 03:38:50;;;;;;;0.10;0.10;;;;;;;8.05;100.00;101384.81;5062344;28;20074;-75
2022/10/20 03:41:15;;;;;;;0.10;0.10;;;;;;;8.25;100.00;101413.03;5044561;28;20284;-73
2022/10/20 03:43:41;;;;;;;0.10;0.10;;;;;;;8.18;100.00;101405.47;5056532;28;20067;-72
2022/10/20 03:46:08;;;;;;;0.10;0.10;;;;;;;8.16;100.00;101396.66;5066318;28;20031;-73
2022/10/20 03:48:34;;;;;;;0.10;0.10;;;;;;;8.17;100.00;101393.03;5044979;28;20066;-75
2022/10/20 03:51:00;;;;;;;0.08;0.08;;;;;;;8.24;100.00;101389.91;5061176;28;20032;-74
2022/10/20 03:53:26;;;;;;;0.10;0.10;;;;;;;8.20;100.00;101371.47;5042285;28;20036;-73
2022/10/20 03:55:52;;;;;;;0.10;0.10;;;;;;;8.41;100.00;101386.22;5066615;28;20489;-73
2022/10/20 03:58:17;;;;;;;0.10;0.10;;;;;;;8.30;100.00;101369.09;5060660;28;20035;-74
2022/10/20 04:00:42;;;;;;;0.00;0.00;;;;;;;8.25;100.00;101364.03;5060596;28;20039;-73
2022/10/20 04:03:08;;;;;;;0.20;0.10;;;;;;;8.27;100.00;101362.13;5055558;28;20041;-73
2022/10/20 04:05:33;;;;;;;0.10;0.10;;;;;;;8.41;100.00;101377.34;5064856;28;20385;-72
2022/10/20 04:07:58;;;;;;;0.10;0.10;;;;;;;8.37;100.00;101381.16;5053961;28;20031;-75
2022/10/20 04:10:24;;;;;;;0.10;0.10;;;;;;;8.44;100.00;101387.88;5064537;28;20055;-72
2022/10/20 04:12:49;;;;;;;0.10;0.10;;;;;;;8.42;100.00;101368.38;5035860;28;20084;-72
2022/10/20 04:15:17;;;;;;;0.10;0.10;;;;;;;8.44;100.00;101370.94;5056750;28;20073;-73
2022/10/20 04:17:43;;;;;;;0.10;0.10;;;;;;;8.36;100.00;101341.97;5053136;28;20135;-73
2022/10/20 04:20:08;;;;;;;0.10;0.10;;;;;;;8.49;100.00;101364.38;5053652;28;20030;-73
2022/10/20 04:22:34;;;;;;;0.10;0.10;;;;;;;8.46;100.00;101358.34;5027034;28;20031;-72
2022/10/20 04:24:59;;;;;;;0.10;0.10;;;;;;;8.55;100.00;101371.19;5056115;28;20618;-72
2022/10/20 04:27:24;;;;;;;0.20;0.20;;;;;;;8.59;100.00;101361.16;5054433;28;20038;-71
2022/10/20 04:29:50;;;;;;;0.10;0.10;;;;;;;8.62;100.00;101361.81;5052762;28;20062;-72
2022/10/20 04:32:15;;;;;;;0.10;0.10;;;;;;;8.49;100.00;101336.78;5031910;28;20032;-71
2022/10/20 04:34:40;;;;;;;0.10;0.10;;;;;;;8.53;100.00;101343.66;5035522;28;20112;-71
2022/10/20 04:37:06;;;;;;;0.10;0.10;;;;;;;8.60;100.00;101350.38;5054207;28;20027;-73
2022/10/20 04:39:31;;;;;;;0.43;0.10;;;;;;;8.68;100.00;101347.22;5040584;28;20111;-73
2022/10/20 04:41:56;;;;;;;0.10;0.10;;;;;;;8.67;100.00;101342.81;5050231;28;20020;-72
2022/10/20 04:44:22;;;;;;;0.10;0.10;;;;;;;8.66;100.00;101327.72;5054446;28;20037;-73
2022/10/20 04:46:47;;;;;;;0.03;0.03;;;;;;;8.60;100.00;101299.50;5051745;28;20048;-73
2022/10/20 04:49:13;;;;;;;0.10;0.10;;;;;;;8.61;100.00;101311.06;5055806;28;20531;-73
2022/10/20 04:51:38;;;;;;;0.10;0.10;;;;;;;8.59;100.00;101287.09;5057523;28;20033;-72
2022/10/20 04:54:04;;;;;;;0.10;0.10;;;;;;;8.57;100.00;101280.09;5037981;28;20020;-72
2022/10/20 04:56:29;;;;;;;0.10;0.10;;;;;;;8.69;100.00;101306.94;5037544;28;20033;-72
2022/10/20 04:58:56;;;;;;;0.10;0.10;;;;;;;8.82;100.00;101304.38;5054195;28;20119;-71
2022/10/20 05:01:25;;;;;;;0.10;0.10;;;;;;;8.81;100.00;101302.66;5050413;28;20949;-71
2022/10/20 05:03:50;;;;;;;0.00;0.00;;;;;;;8.80;100.00;101276.81;5050938;28;20034;-73
2022/10/20 05:06:18;;;;;;;0.15;0.15;;;;;;;8.80;100.00;101279.50;5041199;28;20036;-75
2022/10/20 05:08:48;;;;;;;0.10;0.10;;;;;;;8.88;100.00;101288.88;5035848;28;20601;-72
2022/10/20 05:11:14;;;;;;;0.10;0.10;;;;;;;8.95;100.00;101287.53;5038609;28;20040;-73
2022/10/20 05:13:40;;;;;;;0.10;0.10;;;;;;;8.92;100.00;101272.50;5058846;28;20031;-72
2022/10/20 05:16:06;;;;;;;0.10;0.10;;;;;;;8.88;100.00;101275.47;5038873;28;20019;-72
2022/10/20 05:18:33;;;;;;;0.13;0.13;;;;;;;8.98;100.00;101284.66;5063125;28;20029;-72
2022/10/20 05:20:58;;;;;;;0.10;0.10;;;;;;;8.92;100.00;101267.16;5028633;28;20028;-72
2022/10/20 05:23:23;;;;;;;0.10;0.10;;;;;;;8.93;100.00;101250.13;5042205;28;20479;-77
2022/10/20 05:25:49;;;;;;;0.10;0.10;;;;;;;9.10;100.00;101254.38;5046069;28;20362;-72
2022/10/20 05:28:14;;;;;;;0.10;0.10;;;;;;;9.06;100.00;101244.81;5043907;28;20024;-71
2022/10/20 05:30:39;;;;;;;0.10;0.10;;;;;;;8.94;100.00;101249.16;5064142;28;20423;-71
2022/10/20 05:33:05;;;;;;;0.10;0.10;;;;;;;9.02;100.00;101248.66;5058566;28;20098;-71
2022/10/20 05:35:30;;;;;;;0.10;0.10;;;;;;;9.00;100.00;101246.09;5047957;28;20044;-73
2022/10/20 05:37:56;;;;;;;0.10;0.10;;;;;;;9.05;100.00;101253.81;5063987;28;20038;-74
2022/10/20 05:40:21;;;;;;;0.10;0.10;;;;;;;9.06;100.00;101268.09;5048708;28;20103;-73
2022/10/20 05:42:46;;;;;;;0.10;0.10;;;;;;;9.08;100.00;101276.88;5067895;28;20030;-72
2022/10/20 05:45:12;;;;;;;0.10;0.10;;;;;;;9.08;100.00;101245.59;5064466;28;20032;-72
2022/10/20 05:47:37;;;;;;;0.10;0.10;;;;;;;9.17;100.00;101224.53;5056813;28;20024;-72
2022/10/20 05:50:03;;;;;;;0.10;0.10;;;;;;;9.03;100.00;101215.56;5063986;28;20029;-72
2022/10/20 05:52:28;;;;;;;0.10;0.10;;;;;;;8.90;100.00;101171.81;5064950;28;20729;-71
2022/10/20 05:54:53;;;;;;;0.10;0.10;;;;;;;9.13;100.00;101197.09;5063729;28;20024;-72
2022/10/20 05:57:19;;;;;;;0.10;0.10;;;;;;;9.22;100.00;101236.66;5064354;28;20217;-71
2022/10/20 05:59:44;;;;;;;0.10;0.10;;;;;;;9.32;100.00;101278.94;5059839;28;20025;-72
2022/10/20 06:02:10;;;;;;;0.10;0.10;;;;;;;9.15;100.00;101270.16;5053523;28;20040;-76
2022/10/20 06:04:35;;;;;;;0.10;0.10;;;;;;;9.11;100.00;101264.16;5045846;28;20468;-72
2022/10/20 06:07:01;;;;;;;0.10;0.10;;;;;;;9.09;100.00;101266.06;5046986;28;20039;-74
2022/10/20 06:09:26;;;;;;;0.10;0.10;;;;;;;8.95;100.00;101255.41;5044536;28;20032;-76
2022/10/20 06:11:53;;;;;;;0.10;0.10;;;;;;;9.14;100.00;101282.69;5049225;28;20032;-77
2022/10/20 06:14:21;;;;;;;0.10;0.10;;;;;;;9.10;100.00;101266.94;5041425;28;20082;-72
2022/10/20 06:16:48;;;;;;;0.10;0.10;;;;;;;9.06;100.00;101260.06;5050092;28;20073;-74
2022/10/20 06:19:14;;;;;;;0.10;0.10;;;;;;;9.02;100.00;101256.69;5045703;28;20035;-76
2022/10/20 06:21:39;;;;;;;0.10;0.10;;;;;;;9.09;100.00;101257.19;5042603;28;20036;-73
2022/10/20 06:24:05;;;;;;;0.10;0.10;;;;;;;9.11;100.00;101263.31;5059664;28;20056;-72
2022/10/20 06:26:32;;;;;;;0.00;0.00;;;;;;;9.10;100.00;101258.91;5033242;28;20396;-72
2022/10/20 06:28:58;;;;;;;0.10;0.10;;;;;;;9.15;100.00;101263.00;5030160;28;20081;-72
2022/10/20 06:31:29;;;;;;;0.00;0.00;;;;;;;9.19;100.00;101260.97;5054173;28;20033;-72
2022/10/20 06:33:55;;;;;;;0.28;0.10;;;;;;;9.27;100.00;101257.81;5067387;28;20060;-72
2022/10/20 06:36:22;;;;;;;0.10;0.10;;;;;;;8.59;100.00;101139.00;5059881;28;20047;-72
2022/10/20 06:38:51;;;;;;;0.10;0.10;;;;;;;9.17;100.00;101222.69;5063466;28;20099;-72
2022/10/20 06:41:16;;;;;;;0.10;0.10;;;;;;;9.38;100.00;101257.94;5041690;28;20032;-73
2022/10/20 06:43:42;;;;;;;0.10;0.10;;;;;;;9.41;100.00;101252.38;5059872;28;20033;-76
2022/10/20 06:46:11;;;;;;;0.10;0.10;;;;;;;9.17;100.00;101220.00;5041786;28;20075;-72
2022/10/20 06:48:37;;;;;;;0.10;0.10;;;;;;;9.44;100.00;101267.38;5049309;28;20134;-73
2022/10/20 06:51:05;;;;;;;0.10;0.10;;;;;;;9.36;100.00;101261.69;5046568;28;20059;-74
2022/10/20 06:53:31;;;;;;;0.10;0.10;;;;;;;9.34;100.00;101287.72;5068110;28;20024;-75
2022/10/20 06:55:57;;;;;;;0.10;0.10;;;;;;;9.44;100.00;101267.38;5046066;28;20476;-73
2022/10/20 06:58:23;;;;;;;0.15;0.15;;;;;;;9.45;100.00;101267.31;5033422;28;20028;-73
2022/10/20 07:00:57;;;;;;;0.00;0.00;;;;;;;9.38;100.00;101232.97;5052300;28;20040;-73
2022/10/20 07:03:22;;;;;;;0.10;0.10;;;;;;;9.39;100.00;101219.47;5043105;28;20055;-73
2022/10/20 07:05:48;;;;;;;0.00;0.00;;;;;;;9.55;100.00;101221.97;5048166;28;20060;-73
2022/10/20 07:08:13;;;;;;;0.10;0.10;;;;;;;9.60;100.00;101235.94;5050012;28;20126;-73
2022/10/20 07:10:38;;;;;;;0.10;0.10;;;;;;;9.65;100.00;101234.75;5031476;28;20036;-73
2022/10/20 07:13:03;;;;;;;0.10;0.10;;;;;;;9.84;100.00;101258.47;5065534;28;20023;-73
2022/10/20 07:15:29;;;;;;;0.10;0.10;;;;;;;9.87;100.00;101251.09;5048696;28;20012;-73
2022/10/20 07:17:54;;;;;;;0.10;0.10;;;;;;;9.88;100.00;101244.78;5043897;28;20118;-73
2022/10/20 07:20:19;;;;;;;0.08;0.08;;;;;;;9.85;100.00;101212.81;5067486;28;20709;-73
2022/10/20 07:22:45;;;;;;;0.10;0.10;;;;;;;10.08;100.00;101237.16;5044849;28;20117;-73
2022/10/20 07:25:10;;;;;;;0.10;0.10;;;;;;;10.09;100.00;101238.91;5058821;28;20116;-74
2022/10/20 07:27:35;;;;;;;0.10;0.10;;;;;;;9.98;100.00;101203.88;5027514;28;20031;-73
2022/10/20 07:30:00;;;;;;;0.10;0.10;;;;;;;10.18;100.00;101232.03;5066014;28;20036;-73
2022/10/20 07:32:26;;;;;;;0.10;0.10;;;;;;;10.28;100.00;101242.97;5058243;28;20024;-72
2022/10/20 07:34:52;;;;;;;0.00;0.00;;;;;;;10.27;100.00;101250.16;5065644;28;20083;-72
2022/10/20 07:37:18;;;;;;;0.10;0.10;;;;;;;10.35;100.00;101241.56;5065614;28;20078;-71
2022/10/20 07:39:43;;;;;;;0.10;0.10;;;;;;;10.36;100.00;101240.59;5046966;28;20028;-72
2022/10/20 07:42:08;;;;;;;0.10;0.10;;;;;;;10.43;100.00;101233.88;5041458;28;20499;-73
2022/10/20 07:44:34;;;;;;;0.10;0.10;;;;;;;10.45;100.00;101247.19;5064717;28;20553;-75
2022/10/20 07:46:59;;;;;;;0.10;0.10;;;;;;;10.61;100.00;101226.31;5048729;28;20032;-73
2022/10/20 07:49:24;;;;;;;0.10;0.10;;;;;;;10.81;100.00;101250.88;5063574;28;20028;-73
2022/10/20 07:51:50;;;;;;;0.10;0.10;;;;;;;10.95;100.00;101245.34;5048204;28;20109;-75
2022/10/20 07:54:15;;;;;;;0.10;0.10;;;;;;;10.99;100.00;101226.34;5064364;28;20070;-76
2022/10/20 07:56:42;;;;;;;0.10;0.10;;;;;;;11.16;100.00;101235.84;5048204;28;20194;-76
2022/10/20 07:59:08;;;;;;;0.10;0.10;;;;;;;11.16;100.00;101223.25;5042629;28;20070;-72
2022/10/20 08:01:34;;;;;;;0.10;0.10;;;;;;;11.19;100.00;101220.34;5059418;28;20032;-76
2022/10/20 08:03:59;;;;;;;0.10;0.10;;;;;;;11.25;100.00;101205.59;5044525;28;20039;-74
2022/10/20 08:06:25;;;;;;;0.10;0.10;;;;;;;11.60;100.00;101225.41;5042776;28;20823;-74
2022/10/20 08:08:50;;;;;;;0.10;0.10;;;;;;;11.60;100.00;101222.72;5039188;28;20052;-76
2022/10/20 08:11:16;;;;;;;0.10;0.10;;;;;;;11.56;100.00;101235.53;5042069;28;20026;-74
2022/10/20 08:13:42;;;;;;;0.10;0.10;;;;;;;11.65;100.00;101225.94;5060754;28;20066;-76
2022/10/20 08:16:08;;;;;;;0.10;0.10;;;;;;;11.71;100.00;101230.81;5041444;28;20416;-75
2022/10/20 08:18:33;;;;;;;0.08;0.08;;;;;;;11.64;100.00;101210.75;5036617;28;20035;-74
2022/10/20 08:21:11;;;;;;;0.10;0.10;;;;;;;11.69;100.00;101236.31;5065498;28;20028;-75
2022/10/20 08:23:38;;;;;;;0.10;0.10;;;;;;;11.74;100.00;101219.81;5039271;28;20048;-73
2022/10/20 08:26:04;;;;;;;0.08;0.08;;;;;;;11.67;100.00;101229.31;5059380;28;20029;-75
2022/10/20 08:28:29;;;;;;;0.00;0.00;;;;;;;11.73;100.00;101211.88;5040331;28;20043;-72
2022/10/20 08:30:54;;;;;;;0.10;0.10;;;;;;;11.95;100.00;101216.44;5045588;28;20440;-73
2022/10/20 08:33:20;;;;;;;0.10;0.10;;;;;;;11.93;100.00;101192.34;5029398;28;20397;-73
2022/10/20 08:35:45;;;;;;;0.10;0.10;;;;;;;12.27;100.00;101210.41;5048904;28;20476;-72
2022/10/20 08:38:10;;;;;;;0.10;0.10;;;;;;;12.31;100.00;101203.81;5065897;28;20537;-73
2022/10/20 08:40:39;;;;;;;0.10;0.10;;;;;;;12.44;100.00;101209.94;5058031;28;20040;-73
2022/10/20 08:43:06;;;;;;;0.10;0.10;;;;;;;12.42;100.00;101208.31;5040347;28;20028;-71
2022/10/20 08:45:31;;;;;;;0.05;0.05;;;;;;;12.48;100.00;101205.16;5058178;28;20143;-74
2022/10/20 08:47:57;;;;;;;0.10;0.10;;;;;;;12.29;100.00;101203.06;5038325;28;20560;-73
2022/10/20 08:50:26;;;;;;;0.10;0.10;;;;;;;12.49;100.00;101211.38;5047953;28;20028;-73
2022/10/20 08:52:55;;;;;;;0.10;0.10;;;;;;;12.45;100.00;101200.84;5045751;28;20040;-75
2022/10/20 08:55:32;;;;;;;0.10;0.10;;;;;;;12.45;100.00;101203.53;5060624;28;20024;-74
2022/10/20 08:58:15;;;;;;;0.10;0.10;;;;;;;12.53;100.00;101202.94;5060210;28;20127;-72
2022/10/20 09:00:41;;;;;;;0.10;0.10;;;;;;;12.55;100.00;101200.13;5062048;28;20036;-74
2022/10/20 09:03:27;;;;;;;0.10;0.10;;;;;;;12.63;100.00;101207.56;5043528;28;20031;-73
2022/10/20 09:06:15;;;;;;;0.10;0.10;;;;;;;12.60;100.00;101197.91;5065710;28;20056;-74
2022/10/20 09:08:42;;;;;;;0.20;0.20;;;;;;;12.56;100.00;101199.13;5040269;28;20079;-72
2022/10/20 09:11:10;;;;;;;0.10;0.10;;;;;;;12.74;100.00;101183.31;5041066;28;20388;-72
2022/10/20 09:13:36;;;;;;;0.10;0.10;;;;;;;12.72;100.00;101182.59;5059575;28;20029;-73
2022/10/20 09:16:07;;;;;;;0.10;0.10;;;;;;;12.89;100.00;101190.13;5063717;28;20081;-74
2022/10/20 09:18:33;;;;;;;0.10;0.10;;;;;;;12.89;100.00;101182.06;5047959;28;20049;-74
2022/10/20 09:21:08;;;;;;;0.10;0.10;;;;;;;13.07;100.00;101183.34;5049473;28;20430;-73
2022/10/20 09:23:42;;;;;;;0.08;0.08;;;;;;;13.07;100.00;101181.53;5041954;28;20028;-73
2022/10/20 09:26:21;;;;;;;0.08;0.08;;;;;;;13.13;100.00;101180.16;5067811;28;20031;-75
2022/10/20 09:28:49;;;;;;;0.10;0.10;;;;;;;13.11;100.00;101174.88;5033775;28;20016;-73
2022/10/20 09:31:32;;;;;;;0.10;0.10;;;;;;;13.23;100.00;101180.25;5051080;28;20032;-73
2022/10/20 09:33:58;;;;;;;0.10;0.10;;;;;;;13.20;100.00;101166.03;5032400;28;20472;-75
2022/10/20 09:36:28;;;;;;;0.10;0.10;;;;;;;13.32;100.00;101187.56;5044526;28;20033;-75
2022/10/20 09:38:53;;;;;;;0.10;0.10;;;;;;;13.15;100.00;101168.25;5028690;28;20343;-71
2022/10/20 09:41:20;;;;;;;0.10;0.10;;;;;;;13.16;100.00;101175.34;5046058;28;20115;-75
2022/10/20 09:43:54;;;;;;;0.10;0.10;;;;;;;13.13;100.00;101174.75;5049608;28;20029;-73
2022/10/20 09:46:21;;;;;;;;;;;;;;;13.17;100.00;101160.88;5063686;28;20028;-75
2022/10/20 09:48:48;;;;;;;0.00;0.00;;;;;;;13.18;100.00;101186.88;5049238;28;20002;-72
2022/10/20 09:51:24;;;;;;;0.00;0.00;;;;;;;13.18;100.00;101186.03;5050127;28;20024;-73
2022/10/20 09:53:58;;;;;;;0.10;0.10;;;;;;;13.44;100.00;101189.25;5031890;28;20028;-74
2022/10/20 09:56:35;;;;;;;0.10;0.10;;;;;;;13.44;100.00;101180.31;5050655;28;20387;-76
2022/10/20 09:59:02;;;;;;;0.10;0.10;;;;;;;13.47;100.00;101175.50;5043492;28;20425;-73
2022/10/20 10:01:27;;;;;;;0.05;0.05;;;;;;;13.30;100.00;101163.41;5061656;28;20032;-71
2022/10/20 10:03:58;;;;;;;0.10;0.10;;;;;;;13.49;100.00;101173.53;5065614;28;20417;-73
2022/10/20 10:06:30;;;;;;;0.10;0.10;;;;;;;13.37;100.00;101152.09;5047340;28;20024;-73
2022/10/20 10:08:57;;;;;;;0.10;0.10;;;;;;;13.49;100.00;101159.22;5049517;28;20395;-72
2022/10/20 10:11:27;;;;;;;0.10;0.10;;;;;;;13.49;100.00;101157.34;5045824;28;20106;-73
2022/10/20 10:13:52;;;;;;;0.10;0.10;;;;;;;13.38;100.00;101149.28;5042053;28;20464;-72
2022/10/20 10:16:20;;;;;;;0.10;0.10;;;;;;;13.46;100.00;101160.31;5051877;28;20024;-73
2022/10/20 10:19:04;;;;;;;0.10;0.10;;;;;;;13.54;100.00;101172.28;5056909;28;20506;-74
2022/10/20 10:21:29;;;;;;;0.10;0.10;;;;;;;13.52;100.00;101172.41;5063973;28;20395;-71
2022/10/20 10:23:59;;;;;;;0.10;0.10;;;;;;;13.67;100.00;101172.09;5061879;28;20036;-73
2022/10/20 10:26:43;;;;;;;0.10;0.10;;;;;;;13.59;100.00;101180.84;5036050;28;20017;-72
2022/10/20 10:29:17;;;;;;;0.10;0.10;;;;;;;13.33;100.00;101162.31;5076737;28;20396;-72
2022/10/20 10:31:58;;;;;;;0.10;0.10;;;;;;;13.35;100.00;101160.34;5047452;28;20024;-72
2022/10/20 10:34:57;;;;;;;0.10;0.10;;;;;;;13.57;100.00;101194.44;5078427;28;20058;-71
2022/10/20 10:37:22;;;;;;;0.10;0.10;;;;;;;13.60;100.00;101186.09;5045445;28;20400;-72
2022/10/20 10:39:48;;;;;;;0.00;0.00;;;;;;;13.31;100.00;101145.41;5059856;28;20029;-71
2022/10/20 10:42:34;;;;;;;0.08;0.08;;;;;;;13.56;100.00;101168.47;5054212;28;20633;-71
2022/10/20 10:45:29;;;;;;;0.10;0.10;;;;;;;13.56;100.00;101151.44;5059786;28;20411;-75
2022/10/20 10:48:40;;;;;;;0.10;0.10;;;;;;;13.52;100.00;101167.00;5050651;28;20028;-73
2022/10/20 10:51:10;;;;;;;0.10;0.10;;;;;;;13.57;100.00;101167.47;5047914;28;20040;-72
2022/10/20 10:53:42;;;;;;;0.10;0.10;;;;;;;13.46;100.00;101168.41;5068017;28;20031;-72
2022/10/20 10:56:35;;;;;;;0.10;0.10;;;;;;;13.50;100.00;101153.66;5050811;28;20024;-71
2022/10/20 10:59:26;;;;;;;0.00;0.00;;;;;;;13.46;100.00;101162.16;5062816;28;20302;-73
2022/10/20 11:02:19;;;;;;;0.00;0.00;;;;;;;13.42;100.00;101147.22;5028065;28;20036;-72
2022/10/20 11:05:22;;;;;;;0.10;0.10;;;;;;;13.22;100.00;101144.34;5056465;28;20106;-72
2022/10/20 11:07:51;;;;;;;0.05;0.05;;;;;;;13.22;100.00;101130.00;5081092;28;20074;-73
2022/10/20 11:10:23;;;;;;;0.10;0.10;;;;;;;13.12;100.00;101117.28;5036415;28;20073;-72
2022/10/20 11:12:58;;;;;;;0.00;0.00;;;;;;;13.10;100.00;101126.50;5048033;28;20020;-73
2022/10/20 11:15:27;;;;;;;0.10;0.10;;;;;;;13.01;100.00;101125.44;5049335;28;20055;-73
2022/10/20 11:17:57;;;;;;;0.10;0.10;;;;;;;13.01;100.00;101134.34;5054941;28;20711;-73
2022/10/20 11:20:34;;;;;;;0.00;0.00;;;;;;;13.01;100.00;101142.44;5066790;28;20040;-73
2022/10/20 11:23:19;;;;;;;0.10;0.10;;;;;;;12.99;100.00;101138.19;5042120;28;20025;-73
2022/10/20 11:26:00;;;;;;;0.10;0.10;;;;;;;12.80;100.00;101130.75;5062475;28;20184;-71
2022/10/20 11:28:34;;;;;;;0.10;0.10;;;;;;;12.82;100.00;101136.88;5045590;28;20036;-72